Time;durP1;ratioP1;P1;durP2;ratioP2;P2;SDS_P1;SDS_P2;PMS_P1;PMS_P2;Temp;Humidity;BMP_temperature;BMP_pressure;BME280_temperature;BME280_humidity;BME280_pressure;Samples;Min_cycle;Max_cycle;Signal;HPM_P1;HPM_P2
2022/10/26 00:00:26;;;;;;;17.38;9.05;;;12.00;99.90;;;;;;5068219;28;20055;-91
2022/10/26 00:02:54;;;;;;;15.20;9.00;;;12.00;99.90;;;;;;5095949;28;20043;-92
2022/10/26 00:05:20;;;;;;;16.38;8.88;;;13.10;99.90;;;;;;5098522;28;20122;-92
2022/10/26 00:07:46;;;;;;;13.35;8.45;;;11.90;99.90;;;;;;5065034;28;20093;-92
2022/10/26 00:10:12;;;;;;;17.00;8.35;;;12.70;99.90;;;;;;5095825;28;20338;-91
2022/10/26 00:12:38;;;;;;;14.57;8.20;;;11.90;99.90;;;;;;5090135;28;20039;-92
2022/10/26 00:15:04;;;;;;;15.20;8.82;;;12.90;99.90;;;;;;5105302;28;20043;-92
2022/10/26 00:17:29;;;;;;;14.65;8.73;;;11.90;99.90;;;;;;5110881;28;20035;-92
2022/10/26 00:19:56;;;;;;;14.27;8.48;;;11.90;99.90;;;;;;5080694;28;20109;-92
2022/10/26 00:22:22;;;;;;;12.70;8.77;;;13.10;99.90;;;;;;5088663;28;20067;-92
2022/10/26 00:24:48;;;;;;;14.05;9.30;;;11.90;99.90;;;;;;5080440;28;20043;-92
2022/10/26 00:27:13;;;;;;;17.30;9.48;;;13.00;99.90;;;;;;5097838;28;20047;-92
2022/10/26 00:29:39;;;;;;;15.65;9.18;;;13.10;99.90;;;;;;5080125;28;20039;-92
2022/10/26 00:32:05;;;;;;;18.30;8.50;;;12.00;99.90;;;;;;5080500;28;20039;-92
2022/10/26 00:34:31;;;;;;;14.60;9.40;;;12.90;99.90;;;;;;5097057;28;20044;-92
2022/10/26 00:36:57;;;;;;;16.70;9.30;;;11.80;99.90;;;;;;5098588;28;20081;-93
2022/10/26 00:39:23;;;;;;;17.88;9.45;;;11.70;99.90;;;;;;5097765;28;20051;-92
2022/10/26 00:41:49;;;;;;;15.77;9.07;;;11.70;99.90;;;;;;5098319;28;20047;-92
2022/10/26 00:44:45;;;;;;;16.88;9.10;;;11.60;99.90;;;;;;5080468;28;20044;-92
2022/10/26 00:47:40;;;;;;;16.52;9.57;;;11.60;99.90;;;;;;5081263;28;20048;-91
2022/10/26 00:50:10;;;;;;;17.33;9.23;;;11.60;99.90;;;;;;5038730;28;20488;-92
2022/10/26 00:52:37;;;;;;;13.68;9.00;;;11.60;99.90;;;;;;5115141;28;20065;-92
2022/10/26 00:55:04;;;;;;;15.80;10.00;;;13.00;99.90;;;;;;5085878;28;20051;-93
2022/10/26 00:57:30;;;;;;;16.00;8.85;;;11.50;99.90;;;;;;5094715;28;20048;-93
2022/10/26 00:59:58;;;;;;;15.25;9.38;;;12.40;99.90;;;;;;5076943;28;20079;-93
2022/10/26 01:02:24;;;;;;;15.93;9.40;;;12.80;99.90;;;;;;5103340;28;20047;-91
2022/10/26 01:04:50;;;;;;;12.45;9.13;;;11.50;99.90;;;;;;5093755;28;20516;-92
2022/10/26 01:07:16;;;;;;;17.52;9.85;;;12.70;99.90;;;;;;5076561;28;20043;-93
2022/10/26 01:09:42;;;;;;;14.85;9.32;;;12.10;99.90;;;;;;5094962;28;20036;-91
2022/10/26 01:12:08;;;;;;;20.40;9.73;;;11.30;99.90;;;;;;5076683;28;20040;-92
2022/10/26 01:14:34;;;;;;;16.42;9.77;;;11.50;99.90;;;;;;5061124;28;20051;-92
2022/10/26 01:17:18;;;;;;;20.10;9.40;;;12.00;99.90;;;;;;5094496;28;20031;-92
2022/10/26 01:20:22;;;;;;;17.05;9.55;;;11.50;99.90;;;;;;5080811;28;20043;-92
2022/10/26 01:23:17;;;;;;;14.50;9.30;;;11.40;99.90;;;;;;5094201;28;20428;-92
2022/10/26 01:26:07;;;;;;;17.42;9.43;;;11.40;99.90;;;;;;5076188;28;20075;-91
2022/10/26 01:29:10;;;;;;;13.82;9.05;;;11.30;99.90;;;;;;5068841;28;20044;-91
2022/10/26 01:31:52;;;;;;;20.30;9.88;;;11.40;99.90;;;;;;5078636;28;20036;-92
2022/10/26 01:34:31;;;;;;;13.80;9.35;;;11.30;99.90;;;;;;5074750;28;20097;-91
2022/10/26 01:37:04;;;;;;;15.43;9.15;;;11.20;99.90;;;;;;5076590;28;20127;-91
2022/10/26 01:39:43;;;;;;;16.50;8.82;;;11.20;99.90;;;;;;5108791;28;20043;-92
2022/10/26 01:42:11;;;;;;;16.00;9.60;;;11.20;99.90;;;;;;5112056;28;20093;-92
2022/10/26 01:44:47;;;;;;;14.27;9.57;;;11.20;99.90;;;;;;5110618;28;20032;-92
2022/10/26 01:47:15;;;;;;;12.75;9.30;;;11.10;99.90;;;;;;5079538;28;20373;-91
2022/10/26 01:49:47;;;;;;;15.65;9.77;;;11.10;99.90;;;;;;5096721;28;20040;-92
2022/10/26 01:52:12;;;;;;;22.88;9.55;;;12.10;99.90;;;;;;5096589;28;20044;-87
2022/10/26 01:54:38;;;;;;;15.23;9.43;;;12.20;99.90;;;;;;5081548;28;20046;-91
2022/10/26 01:57:07;;;;;;;14.10;9.98;;;11.00;99.90;;;;;;5117516;28;20079;-92
2022/10/26 01:59:40;;;;;;;17.02;9.32;;;11.90;99.90;;;;;;5116353;28;20126;-91
2022/10/26 02:02:28;;;;;;;20.25;10.00;;;12.50;99.90;;;;;;5082740;28;20392;-92
2022/10/26 02:05:27;;;;;;;17.77;9.82;;;11.00;99.90;;;;;;5097303;28;20518;-91
2022/10/26 02:08:14;;;;;;;16.40;10.07;;;11.00;99.90;;;;;;5079998;28;20039;-91
2022/10/26 02:11:16;;;;;;;17.75;10.27;;;10.90;99.90;;;;;;5061382;28;20047;-91
2022/10/26 02:13:51;;;;;;;15.90;10.65;;;10.90;99.90;;;;;;5080553;28;20040;-92
2022/10/26 02:16:30;;;;;;;13.60;9.65;;;10.80;99.90;;;;;;5079833;28;20427;-91
2022/10/26 02:19:04;;;;;;;18.17;10.50;;;10.80;99.90;;;;;;5088124;28;20076;-91
2022/10/26 02:22:15;;;;;;;14.57;9.88;;;10.80;99.90;;;;;;5096598;28;20051;-90
2022/10/26 02:24:42;;;;;;;14.80;10.40;;;10.70;99.90;;;;;;5079399;28;20047;-91
2022/10/26 02:27:13;;;;;;;17.33;10.70;;;11.80;99.90;;;;;;5111820;28;20435;-91
2022/10/26 02:29:41;;;;;;;13.65;10.07;;;10.70;99.90;;;;;;5081805;28;20512;-91
2022/10/26 02:32:07;;;;;;;14.93;10.75;;;10.70;99.90;;;;;;5096967;28;20393;-92
2022/10/26 02:34:36;;;;;;;17.52;10.55;;;11.70;99.90;;;;;;5095487;28;20113;-92
2022/10/26 02:37:03;;;;;;;17.38;10.88;;;11.90;99.90;;;;;;5099935;28;20048;-91
2022/10/26 02:39:32;;;;;;;15.88;10.80;;;10.50;99.90;;;;;;5076553;28;20060;-92
2022/10/26 02:42:03;;;;;;;20.08;11.60;;;10.50;99.90;;;;;;5066571;28;20055;-92
2022/10/26 02:44:33;;;;;;;15.52;11.48;;;10.60;99.90;;;;;;5078477;28;20097;-91
2022/10/26 02:46:59;;;;;;;19.33;12.13;;;11.40;99.90;;;;;;5068811;28;20042;-91
2022/10/26 02:49:26;;;;;;;16.73;11.60;;;10.40;99.90;;;;;;5097727;28;20564;-91
2022/10/26 02:52:08;;;;;;;15.98;11.07;;;10.40;99.90;;;;;;5079836;28;20044;-90
2022/10/26 02:54:54;;;;;;;16.65;10.82;;;10.40;99.90;;;;;;5091092;28;20048;-91
2022/10/26 02:57:33;;;;;;;18.60;11.63;;;10.40;99.90;;;;;;5096912;28;20097;-92
2022/10/26 02:59:59;;;;;;;14.63;10.70;;;10.40;99.90;;;;;;5081757;28;20094;-92
2022/10/26 03:02:26;;;;;;;16.30;10.90;;;10.30;99.90;;;;;;5094726;28;20119;-91
2022/10/26 03:04:53;;;;;;;17.73;11.35;;;10.30;99.90;;;;;;5069596;28;20392;-92
2022/10/26 03:07:25;;;;;;;18.38;11.05;;;10.30;99.90;;;;;;5079083;28;20066;-91
2022/10/26 03:09:50;;;;;;;19.58;11.30;;;10.90;99.90;;;;;;5068914;28;20047;-91
2022/10/26 03:12:16;;;;;;;18.42;11.60;;;11.00;99.90;;;;;;5079050;28;20040;-91
2022/10/26 03:14:42;;;;;;;16.50;11.30;;;10.30;99.90;;;;;;5060846;28;20047;-91
2022/10/26 03:17:07;;;;;;;20.35;11.43;;;10.20;99.90;;;;;;5091543;28;20070;-91
2022/10/26 03:19:33;;;;;;;20.77;12.10;;;10.20;99.90;;;;;;5097005;28;20040;-90
2022/10/26 03:21:59;;;;;;;19.10;11.80;;;10.20;99.90;;;;;;5097231;28;20088;-91
2022/10/26 03:24:24;;;;;;;20.73;12.25;;;11.00;99.90;;;;;;5088250;28;20094;-91
2022/10/26 03:26:50;;;;;;;17.65;11.80;;;10.20;99.90;;;;;;5088571;28;20085;-91
2022/10/26 03:29:15;;;;;;;16.13;12.20;;;10.20;99.90;;;;;;5080058;28;20161;-91
2022/10/26 03:31:41;;;;;;;18.92;13.02;;;10.20;99.90;;;;;;5097139;28;20571;-91
2022/10/26 03:34:07;;;;;;;19.73;12.77;;;10.20;99.90;;;;;;5098198;28;20353;-91
2022/10/26 03:36:33;;;;;;;19.58;13.20;;;11.00;99.90;;;;;;5079802;28;20066;-91
2022/10/26 03:38:58;;;;;;;20.95;13.63;;;10.20;99.90;;;;;;5093758;28;20084;-90
2022/10/26 03:41:25;;;;;;;18.15;13.48;;;10.10;99.90;;;;;;5089134;28;20121;-90
2022/10/26 03:43:50;;;;;;;22.67;14.07;;;10.50;99.90;;;;;;5056507;28;20127;-91
2022/10/26 03:46:16;;;;;;;18.95;14.02;;;10.10;99.90;;;;;;5062044;28;20094;-90
2022/10/26 03:48:42;;;;;;;21.73;13.95;;;10.00;99.90;;;;;;5096172;28;20028;-92
2022/10/26 03:51:07;;;;;;;20.40;13.57;;;10.00;99.90;;;;;;5100780;28;20044;-90
2022/10/26 03:53:33;;;;;;;24.20;14.60;;;10.00;99.90;;;;;;5089196;28;20043;-92
2022/10/26 03:55:59;;;;;;;19.58;14.25;;;11.30;99.90;;;;;;5074491;28;20051;-90
2022/10/26 03:58:24;;;;;;;22.23;13.68;;;10.00;99.90;;;;;;5057514;28;20060;-91
2022/10/26 04:00:50;;;;;;;22.30;14.07;;;10.00;99.90;;;;;;5057177;28;20049;-92
2022/10/26 04:03:16;;;;;;;22.35;14.98;;;10.00;99.90;;;;;;5083295;28;20043;-91
2022/10/26 04:05:41;;;;;;;22.38;15.20;;;10.90;99.90;;;;;;5092768;28;20101;-90
2022/10/26 04:08:08;;;;;;;24.63;16.02;;;10.70;99.90;;;;;;5094689;28;20035;-90
2022/10/26 04:10:33;;;;;;;22.90;15.10;;;10.00;99.90;;;;;;5095356;28;20083;-91
2022/10/26 04:13:00;;;;;;;23.83;16.20;;;11.10;99.90;;;;;;5095151;28;20126;-90
2022/10/26 04:15:26;;;;;;;25.42;16.02;;;10.00;99.90;;;;;;5073929;28;20058;-91
2022/10/26 04:18:00;;;;;;;24.80;15.60;;;10.60;99.90;;;;;;5059569;28;20473;-91
2022/10/26 04:20:27;;;;;;;23.20;15.38;;;11.00;99.90;;;;;;5074928;28;20093;-91
2022/10/26 04:23:02;;;;;;;23.02;15.45;;;10.00;99.90;;;;;;5068182;28;20435;-91
2022/10/26 04:25:28;;;;;;;21.98;15.63;;;10.00;99.90;;;;;;5090099;28;20048;-91
2022/10/26 04:27:54;;;;;;;25.38;16.35;;;10.00;99.90;;;;;;5075271;28;20040;-90
2022/10/26 04:30:20;;;;;;;24.10;15.40;;;11.40;99.90;;;;;;5077679;28;20078;-91
2022/10/26 04:32:46;;;;;;;22.40;15.60;;;10.00;99.90;;;;;;5073475;28;20052;-91
2022/10/26 04:35:11;;;;;;;23.30;15.32;;;10.80;99.90;;;;;;5058448;28;20040;-91
2022/10/26 04:37:37;;;;;;;24.05;16.10;;;10.00;99.90;;;;;;5089703;28;20514;-91
2022/10/26 04:40:03;;;;;;;24.05;15.93;;;10.00;99.90;;;;;;5065125;28;20524;-91
2022/10/26 04:42:32;;;;;;;24.63;16.05;;;10.00;99.90;;;;;;5076317;28;20119;-91
2022/10/26 04:45:01;;;;;;;24.55;17.05;;;11.40;99.90;;;;;;5093915;28;20098;-91
2022/10/26 04:47:26;;;;;;;24.05;16.25;;;10.00;99.90;;;;;;5094002;28;20051;-90
2022/10/26 04:49:52;;;;;;;22.95;16.45;;;10.00;99.90;;;;;;5063305;28;20044;-91
2022/10/26 04:52:18;;;;;;;22.17;15.98;;;11.10;99.90;;;;;;5074014;28;20446;-90
2022/10/26 04:54:43;;;;;;;23.05;16.27;;;10.00;99.90;;;;;;5073072;28;20049;-90
2022/10/26 04:57:09;;;;;;;23.63;16.13;;;10.10;99.90;;;;;;5074676;28;20028;-91
2022/10/26 04:59:35;;;;;;;25.90;17.70;;;10.10;99.90;;;;;;5056914;28;20036;-91
2022/10/26 05:02:01;;;;;;;27.55;17.48;;;10.20;99.90;;;;;;5090144;28;20390;-91
2022/10/26 05:04:26;;;;;;;27.13;16.80;;;10.00;99.90;;;;;;5092458;28;20529;-90
2022/10/26 05:06:55;;;;;;;26.02;17.13;;;10.00;99.90;;;;;;5079752;28;20120;-91
2022/10/26 05:09:20;;;;;;;24.60;16.73;;;10.40;99.90;;;;;;5064842;28;20131;-89
2022/10/26 05:11:46;;;;;;;24.80;17.08;;;10.50;99.90;;;;;;5066602;28;20043;-91
2022/10/26 05:14:12;;;;;;;25.95;16.33;;;10.10;99.90;;;;;;5056987;28;20053;-90
2022/10/26 05:16:38;;;;;;;25.25;17.90;;;11.60;99.90;;;;;;5084705;28;20048;-90
2022/10/26 05:19:03;;;;;;;26.35;17.27;;;10.80;99.90;;;;;;5078310;28;20426;-90
2022/10/26 05:21:30;;;;;;;25.65;16.85;;;11.40;99.90;;;;;;5067662;28;20036;-91
2022/10/26 05:23:56;;;;;;;24.30;17.48;;;10.30;99.90;;;;;;5093719;28;20445;-90
2022/10/26 05:26:23;;;;;;;29.65;17.05;;;11.50;99.90;;;;;;5087135;28;20070;-91
2022/10/26 05:28:51;;;;;;;25.25;16.92;;;10.30;99.90;;;;;;5092050;28;20459;-91
2022/10/26 05:31:17;;;;;;;24.63;17.33;;;10.30;99.90;;;;;;5061239;28;20134;-91
2022/10/26 05:33:43;;;;;;;23.83;16.98;;;10.30;99.90;;;;;;5089607;28;20249;-90
2022/10/26 05:36:09;;;;;;;25.63;16.40;;;11.60;99.90;;;;;;5064635;28;20044;-91
2022/10/26 05:38:34;;;;;;;27.42;17.00;;;10.40;99.90;;;;;;5079056;28;20059;-91
2022/10/26 05:41:00;;;;;;;24.95;16.50;;;11.80;99.90;;;;;;5089455;28;20473;-91
2022/10/26 05:43:26;;;;;;;29.08;16.60;;;10.40;99.90;;;;;;5078092;28;20090;-91
2022/10/26 05:45:53;;;;;;;24.42;16.67;;;11.10;99.90;;;;;;5077950;28;20047;-91
2022/10/26 05:48:19;;;;;;;23.88;16.42;;;10.50;99.90;;;;;;5072619;28;20051;-92
2022/10/26 05:50:45;;;;;;;23.67;15.73;;;11.10;99.90;;;;;;5097743;28;20056;-92
2022/10/26 05:53:11;;;;;;;23.75;15.93;;;10.50;99.90;;;;;;5098918;28;20062;-90
2022/10/26 05:55:37;;;;;;;22.15;15.55;;;12.00;99.90;;;;;;5077201;28;20113;-90
2022/10/26 05:58:08;;;;;;;25.85;15.95;;;10.50;99.90;;;;;;5088540;28;20121;-90
2022/10/26 06:00:34;;;;;;;25.27;15.60;;;10.50;99.90;;;;;;5078776;28;20048;-91
2022/10/26 06:03:19;;;;;;;27.85;15.68;;;10.60;99.90;;;;;;5078387;28;20047;-91
2022/10/26 06:05:53;;;;;;;25.20;15.38;;;11.00;99.90;;;;;;5078749;28;20055;-90
2022/10/26 06:08:20;;;;;;;21.98;15.40;;;10.60;99.90;;;;;;5078458;28;20468;-91
2022/10/26 06:10:46;;;;;;;21.83;15.38;;;10.60;99.90;;;;;;5077192;28;20210;-91
2022/10/26 06:13:12;;;;;;;23.92;15.70;;;10.60;99.90;;;;;;5076883;28;20133;-91
2022/10/26 06:16:01;;;;;;;28.67;17.30;;;10.60;99.90;;;;;;5094214;28;20141;-92
2022/10/26 06:18:54;;;;;;;29.98;18.00;;;10.60;99.90;;;;;;5061186;28;20480;-92
2022/10/26 06:21:46;;;;;;;25.63;17.67;;;10.60;99.90;;;;;;5060639;28;20063;-91
2022/10/26 06:24:24;;;;;;;26.17;17.60;;;10.50;99.90;;;;;;5079562;28;20041;-91
2022/10/26 06:27:17;;;;;;;23.48;17.05;;;10.50;99.90;;;;;;5060708;28;20044;-93
2022/10/26 06:29:53;;;;;;;26.10;17.10;;;10.50;99.90;;;;;;5060520;28;20055;-90
2022/10/26 06:32:23;;;;;;;24.90;16.98;;;10.50;99.90;;;;;;5060702;28;20044;-91
2022/10/26 06:34:51;;;;;;;25.08;16.77;;;11.10;99.90;;;;;;5061225;28;20401;-90
2022/10/26 06:37:16;;;;;;;24.58;15.75;;;10.60;99.90;;;;;;5077666;28;20353;-91
2022/10/26 06:39:48;;;;;;;25.25;15.75;;;10.60;99.90;;;;;;5080529;28;20048;-91
2022/10/26 06:42:15;;;;;;;27.13;15.55;;;10.60;99.90;;;;;;5096388;28;20498;-92
2022/10/26 06:44:41;;;;;;;26.08;15.93;;;10.60;99.90;;;;;;5097554;28;20096;-91
2022/10/26 06:47:17;;;;;;;24.00;15.43;;;10.60;99.90;;;;;;5097924;28;20061;-93
2022/10/26 06:50:20;;;;;;;21.83;15.27;;;10.60;99.90;;;;;;5097851;28;20400;-91
2022/10/26 06:53:05;;;;;;;22.15;14.65;;;10.60;99.90;;;;;;5081131;28;20036;-92
2022/10/26 06:55:41;;;;;;;22.50;14.63;;;10.60;99.90;;;;;;5075235;28;20048;-92
2022/10/26 06:58:16;;;;;;;21.88;14.43;;;10.70;99.90;;;;;;5065804;28;20052;-92
2022/10/26 07:00:44;;;;;;;22.25;14.30;;;10.70;99.90;;;;;;5062264;28;20086;-92
2022/10/26 07:03:09;;;;;;;21.50;13.55;;;10.70;99.90;;;;;;5061480;28;20064;-91
2022/10/26 07:05:35;;;;;;;23.92;14.10;;;11.70;99.90;;;;;;5059959;28;20079;-92
2022/10/26 07:08:01;;;;;;;23.08;13.52;;;11.50;99.90;;;;;;5060932;28;20102;-92
2022/10/26 07:10:27;;;;;;;17.17;12.82;;;10.70;99.90;;;;;;5059339;28;20397;-92
2022/10/26 07:12:52;;;;;;;20.25;12.90;;;10.80;99.90;;;;;;5076880;28;20044;-93
2022/10/26 07:15:18;;;;;;;20.63;12.90;;;11.50;99.90;;;;;;5060071;28;20045;-92
2022/10/26 07:17:45;;;;;;;22.20;12.55;;;11.30;99.90;;;;;;5060204;28;20045;-93
2022/10/26 07:20:20;;;;;;;19.63;12.40;;;11.00;99.90;;;;;;5060369;28;20075;-92
2022/10/26 07:22:55;;;;;;;17.40;12.10;;;11.00;99.90;;;;;;5061123;28;20162;-92
2022/10/26 07:25:22;;;;;;;19.77;12.40;;;11.10;99.90;;;;;;5059794;28;20044;-89
2022/10/26 07:27:48;;;;;;;17.55;11.85;;;11.20;99.90;;;;;;5082837;28;20494;-90
2022/10/26 07:30:14;;;;;;;19.85;12.27;;;11.20;99.90;;;;;;5072733;28;20059;-92
2022/10/26 07:32:40;;;;;;;19.80;12.00;;;12.20;99.90;;;;;;5071823;28;20036;-90
2022/10/26 07:35:06;;;;;;;17.52;11.75;;;11.20;99.90;;;;;;5078800;28;20062;-90
2022/10/26 07:37:31;;;;;;;18.73;11.60;;;11.30;99.90;;;;;;5088055;28;20370;-85
2022/10/26 07:39:57;;;;;;;16.25;11.40;;;11.40;99.90;;;;;;5083763;28;20505;-89
2022/10/26 07:42:23;;;;;;;17.35;10.48;;;11.40;99.90;;;;;;5057410;28;20064;-89
2022/10/26 07:44:48;;;;;;;17.70;10.50;;;11.40;99.90;;;;;;5058018;28;20062;-88
2022/10/26 07:47:14;;;;;;;17.80;10.90;;;12.70;99.90;;;;;;5062038;28;20073;-89
2022/10/26 07:49:40;;;;;;;17.92;9.98;;;11.60;99.90;;;;;;5059704;28;20161;-89
2022/10/26 07:52:06;;;;;;;15.48;10.07;;;11.60;99.90;;;;;;5081378;28;20036;-86
2022/10/26 07:54:31;;;;;;;17.67;10.00;;;11.70;99.90;;;;;;5096674;28;20416;-87
2022/10/26 07:56:58;;;;;;;14.27;9.88;;;12.20;99.90;;;;;;5077557;28;20052;-89
2022/10/26 07:59:24;;;;;;;13.13;9.10;;;11.80;99.90;;;;;;5077554;28;20131;-87
2022/10/26 08:01:49;;;;;;;14.70;9.57;;;11.90;99.90;;;;;;5077836;28;20067;-88
2022/10/26 08:04:15;;;;;;;14.57;9.00;;;12.00;99.90;;;;;;5078325;28;20042;-88
2022/10/26 08:06:41;;;;;;;17.77;9.82;;;12.10;99.90;;;;;;5077528;28;20494;-88
2022/10/26 08:09:07;;;;;;;13.80;9.45;;;12.10;99.90;;;;;;5077192;28;20098;-89
2022/10/26 08:11:35;;;;;;;16.35;8.65;;;12.20;99.90;;;;;;5078452;28;20097;-92
2022/10/26 08:14:02;;;;;;;14.18;8.80;;;12.30;99.90;;;;;;5079001;28;20130;-92
2022/10/26 08:16:28;;;;;;;12.43;7.97;;;12.40;99.90;;;;;;5077349;28;20427;-92
2022/10/26 08:18:54;;;;;;;14.05;8.50;;;12.50;99.90;;;;;;5074591;28;20041;-91
2022/10/26 08:21:20;;;;;;;12.85;8.07;;;12.60;99.90;;;;;;5067863;28;20040;-92
2022/10/26 08:23:45;;;;;;;12.00;8.20;;;13.90;99.90;;;;;;5077071;28;20036;-92
2022/10/26 08:26:11;;;;;;;12.98;8.10;;;12.70;99.90;;;;;;5078553;28;20044;-92
2022/10/26 08:28:38;;;;;;;12.57;8.45;;;12.80;99.90;;;;;;5093332;28;20145;-92
2022/10/26 08:31:04;;;;;;;14.55;7.65;;;12.90;99.90;;;;;;5079117;28;20044;-91
2022/10/26 08:33:33;;;;;;;13.82;7.40;;;;;;;;;;5070296;28;20036;-90
2022/10/26 08:36:04;;;;;;;13.48;7.18;;;;;;;;;;5078955;28;20051;-91
2022/10/26 08:38:32;;;;;;;12.73;7.28;;;;;;;;;;5100149;28;20051;-91
2022/10/26 08:40:59;;;;;;;9.90;6.05;;;;;;;;;;5067759;28;20127;-91
2022/10/26 08:43:33;;;;;;;11.98;6.30;;;;;;;;;;5094904;28;20050;-90
2022/10/26 08:46:04;;;;;;;11.80;6.28;;;;;;;;;;5086557;28;20043;-91
2022/10/26 08:48:33;;;;;;;10.18;5.25;;;;;;;;;;5102066;28;20035;-93
2022/10/26 08:51:01;;;;;;;7.93;5.03;;;;;;;;;;5098508;28;20052;-92
2022/10/26 08:53:28;;;;;;;7.80;4.50;;;;;;;;;;5076575;28;20043;-91
2022/10/26 08:55:57;;;;;;;9.35;5.10;;;;;;;;;;5090689;28;20423;-91
2022/10/26 08:58:26;;;;;;;8.45;4.78;;;;;;;;;;5077096;28;20066;-92
2022/10/26 09:00:52;;;;;;;6.55;4.53;;;;;;;;;;5115869;28;20058;-91
2022/10/26 09:03:19;;;;;;;7.82;4.35;;;;;;;;;;5115872;28;20056;-92
2022/10/26 09:06:08;;;;;;;9.23;4.30;;;;;;;;;;5074799;28;20042;-92
2022/10/26 09:08:35;;;;;;;11.10;4.10;;;;;;;;;;5050547;28;20051;-80
2022/10/26 09:11:13;;;;;;;7.22;4.03;;;;;;;;;;5082762;28;20036;-81
2022/10/26 09:13:54;;;;;;;8.60;3.58;;;;;;;;;;5077054;28;20126;-79
2022/10/26 09:16:26;;;;;;;15.27;3.63;;;;;;;;;;5094340;28;20048;-79
2022/10/26 09:19:00;;;;;;;10.02;3.50;;;;;;;;;;5112509;28;20042;-79
2022/10/26 09:21:32;;;;;;;6.93;3.30;;;;;;;;;;5073631;28;20094;-79
2022/10/26 09:24:02;;;;;;;8.38;3.20;;;;;;;;;;5102883;28;20074;-79
2022/10/26 09:26:32;;;;;;;8.82;3.00;;;;;;;;;;5087023;28;20381;-79
2022/10/26 09:29:06;;;;;;;11.07;3.20;;;;;;;;;;5057753;28;20169;-77
2022/10/26 09:31:35;;;;;;;13.38;3.10;;;;;;;;;;5110305;28;20054;-77
2022/10/26 09:34:02;;;;;;;8.25;3.00;;;;;;;;;;5091945;28;20051;-79
2022/10/26 09:36:28;;;;;;;6.80;4.10;;;;;;;;;;5110814;28;20075;-81
2022/10/26 09:38:59;;;;;;;12.27;3.28;;;;;;;;;;5077660;28;20044;-80
2022/10/26 09:41:28;;;;;;;10.80;3.20;;;;;;;;;;5094481;28;20050;-83
2022/10/26 09:44:05;;;;;;;9.60;3.35;;;;;;;;;;5087715;28;20048;-75
2022/10/26 09:46:33;;;;;;;7.35;2.95;;;;;;;;;;5101711;28;20083;-81
2022/10/26 09:49:01;;;;;;;8.13;2.90;;;;;;;;;;5074543;28;20055;-81
2022/10/26 09:51:27;;;;;;;15.43;3.65;;;;;;;;;;5093343;28;20044;-87
2022/10/26 09:53:53;;;;;;;5.60;2.42;;;;;;;;;;5103165;28;20391;-86
2022/10/26 09:56:19;;;;;;;7.75;2.95;;;;;;;;;;5102770;28;20040;-90
2022/10/26 09:59:04;;;;;;;7.50;2.78;;;;;;;;;;5068406;28;20097;-80
2022/10/26 10:01:32;;;;;;;7.97;2.83;;;;;;;;;;5078206;28;20055;-81
2022/10/26 10:04:16;;;;;;;5.00;2.55;;;;;;;;;;5064995;28;20176;-78
2022/10/26 10:06:43;;;;;;;8.50;3.00;;;;;;;;;;5089968;28;20064;-81
2022/10/26 10:09:13;;;;;;;6.43;2.50;;;;;;;;;;5076026;28;20123;-78
2022/10/26 10:11:41;;;;;;;8.75;2.92;;;;;;;;;;5060728;28;20055;-79
2022/10/26 10:14:08;;;;;;;7.50;2.70;;;;;;;;;;5080845;28;20079;-79
2022/10/26 10:16:34;;;;;;;9.18;2.83;;;;;;;;;;5077495;28;20032;-80
2022/10/26 10:19:01;;;;;;;7.82;2.60;;;;;;;;;;5077659;28;20065;-79
2022/10/26 10:21:37;;;;;;;7.32;2.58;;;;;;;;;;5076843;28;20097;-79
2022/10/26 10:24:21;;;;;;;6.20;2.65;;;;;;;;;;5060527;28;20123;-80
2022/10/26 10:27:16;;;;;;;7.40;2.80;;;;;;;;;;5095283;28;20036;-79
2022/10/26 10:29:46;;;;;;;6.55;2.38;;;;;;;;;;5091193;28;20048;-79
2022/10/26 10:32:15;;;;;;;6.43;2.42;;;;;;;;;;5077172;28;20392;-79
2022/10/26 10:34:42;;;;;;;8.63;2.58;;;;;;;;;;5059390;28;20542;-79
2022/10/26 10:37:21;;;;;;;6.78;2.50;;;;;;;;;;5076915;28;20094;-79
2022/10/26 10:39:48;;;;;;;5.03;2.65;;;;;;;;;;5056338;28;20485;-79
2022/10/26 10:42:21;;;;;;;7.85;2.78;;;;;;;;;;5072470;28;20352;-79
2022/10/26 10:44:50;;;;;;;4.90;2.60;;;;;;;;;;5074008;28;20489;-79
2022/10/26 10:47:22;;;;;;;5.20;2.80;;;;;;;;;;5074455;28;20135;-78
2022/10/26 10:49:53;;;;;;;5.75;2.70;;;;;;;;;;5090702;28;20040;-78
2022/10/26 10:52:24;;;;;;;6.47;2.78;;;;;;;;;;5086800;28;20052;-79
2022/10/26 10:54:52;;;;;;;11.50;2.80;;;;;;;;;;5072506;28;20044;-78
2022/10/26 10:57:51;;;;;;;8.48;2.55;;;;;;;;;;5082231;28;20150;-76
2022/10/26 11:00:18;;;;;;;6.13;2.75;;;;;;;;;;5063070;28;20060;-76
2022/10/26 11:02:50;;;;;;;11.88;3.45;;;;;;;;;;5080877;28;20051;-77
2022/10/26 11:05:19;;;;;;;9.75;2.80;;;;;;;;;;5078835;28;20048;-77
2022/10/26 11:07:50;;;;;;;6.38;2.78;;;;;;;;;;5081862;28;20109;-78
2022/10/26 11:10:19;;;;;;;12.98;3.15;;;;;;;;;;5057790;28;20048;-78
2022/10/26 11:12:51;;;;;;;10.45;2.88;;;;;;;;;;5076461;28;20048;-77
2022/10/26 11:15:19;;;;;;;6.72;2.50;;;;;;;;;;5080902;28;20127;-77
2022/10/26 11:18:08;;;;;;;8.35;2.80;;;;;;;;;;5057947;28;20097;-78
2022/10/26 11:20:38;;;;;;;8.55;2.70;;;;;;;;;;5090316;28;20066;-79
2022/10/26 11:23:13;;;;;;;10.75;2.70;;;;;;;;;;5085906;28;20098;-77
2022/10/26 11:25:44;;;;;;;10.65;2.85;;;;;;;;;;5076364;28;20048;-79
2022/10/26 11:28:16;;;;;;;9.02;2.75;;;;;;;;;;5073742;28;20139;-78
2022/10/26 11:30:45;;;;;;;9.48;2.80;;;;;;;;;;5075010;28;20523;-81
2022/10/26 11:33:27;;;;;;;8.32;2.63;;;;;;;;;;5089351;28;20093;-80
2022/10/26 11:35:55;;;;;;;10.85;2.75;;;;;;;;;;5080703;28;20040;-77
2022/10/26 11:38:27;;;;;;;9.38;2.65;;;;;;;;;;5087600;28;20147;-78
2022/10/26 11:41:03;;;;;;;6.50;2.50;;;;;;;;;;5082237;28;20062;-77
2022/10/26 11:44:06;;;;;;;10.20;2.80;;;13.20;99.90;;;;;;5079833;28;20397;-80
2022/10/26 11:46:47;;;;;;;10.00;3.13;;;23.40;99.90;;;;;;5074003;28;20048;-79
2022/10/26 11:49:12;;;;;;;10.02;2.67;;;24.10;99.90;;;;;;5073075;28;20482;-80
2022/10/26 11:51:41;;;;;;;5.43;2.60;;;24.90;99.90;;;;;;5081111;28;20060;-79
2022/10/26 11:54:15;;;;;;;6.45;2.70;;;25.30;99.90;;;;;;5074663;28;20044;-79
2022/10/26 11:56:46;;;;;;;8.95;2.70;;;26.00;99.90;;;;;;5086007;28;20036;-79
2022/10/26 11:59:27;;;;;;;7.25;2.70;;;26.90;99.90;;;;;;5077155;28;20054;-78
2022/10/26 12:02:03;;;;;;;8.88;2.38;;;27.80;99.90;;;;;;5093480;28;20062;-79
2022/10/26 12:04:32;;;;;;;9.52;2.50;;;28.80;99.90;;;;;;5087971;28;20338;-79
2022/10/26 12:07:01;;;;;;;6.10;2.20;;;29.50;98.10;;;;;;5078028;28;20119;-89
2022/10/26 12:09:33;;;;;;;5.75;2.10;;;30.30;97.40;;;;;;5078029;28;20098;-89
2022/10/26 12:12:19;;;;;;;7.43;2.42;;;31.10;95.00;;;;;;5077451;28;20040;-89
2022/10/26 12:14:58;;;;;;;6.30;2.28;;;31.80;93.30;;;;;;5063138;28;20044;-90
2022/10/26 12:17:46;;;;;;;7.22;2.05;;;32.40;92.70;;;;;;5074119;28;20131;-89
2022/10/26 12:20:18;;;;;;;5.22;2.35;;;32.70;91.40;;;;;;5079354;28;20131;-89
2022/10/26 12:22:44;;;;;;;7.10;2.15;;;31.70;90.80;;;;;;5096321;28;20032;-89
2022/10/26 12:25:13;;;;;;;10.13;2.50;;;;;;;;;;5097604;28;20147;-90
2022/10/26 12:27:39;;;;;;;5.20;2.25;;;;;;;;;;5096117;28;20124;-91
2022/10/26 12:30:18;;;;;;;7.32;2.20;;;;;;;;;;5093699;28;20036;-90
2022/10/26 12:32:44;;;;;;;6.68;2.25;;;;;;;;;;5114924;28;20036;-92
2022/10/26 12:35:29;;;;;;;6.20;2.20;;;;;;;;;;5098845;28;20088;-91
2022/10/26 12:37:56;;;;;;;6.75;1.98;;;;;;;;;;5114111;28;20040;-91
2022/10/26 12:40:31;;;;;;;7.53;2.00;;;;;;;;;;5102436;28;20041;-91
2022/10/26 12:42:57;;;;;;;5.25;2.25;;;;;;;;;;5101070;28;20036;-91
2022/10/26 12:45:23;;;;;;;9.15;2.47;;;;;;;;;;5101854;28;20039;-91
2022/10/26 12:47:49;;;;;;;5.53;2.30;;;;;;;;;;5101725;28;20027;-91
2022/10/26 12:50:23;;;;;;;6.75;2.60;;;;;;;;;;5102191;28;20051;-91
2022/10/26 12:53:00;;;;;;;6.07;2.42;;;;;;;;;;5107709;28;20028;-90
2022/10/26 12:55:41;;;;;;;7.53;2.70;;;;;;;;;;5094958;28;20430;-91
2022/10/26 12:58:26;;;;;;;8.60;2.83;;;;;;;;;;5075397;28;20047;-90
2022/10/26 13:01:11;;;;;;;6.90;2.95;;;;;;;;;;5114509;28;20131;-90
2022/10/26 13:03:49;;;;;;;8.82;2.97;;;;;;;;;;5069213;28;20125;-90
2022/10/26 13:06:16;;;;;;;8.70;3.00;;;;;;;;;;5080530;28;20056;-91
2022/10/26 13:08:46;;;;;;;9.40;2.90;;;;;;;;;;5068009;28;20032;-90
2022/10/26 13:11:18;;;;;;;6.35;3.38;;;;;;;;;;5089799;28;20070;-89
2022/10/26 13:13:45;;;;;;;10.73;3.40;;;;;;;;;;5085447;28;20083;-88
2022/10/26 13:16:12;;;;;;;9.32;3.00;;;;;;;;;;5095264;28;20044;-81
2022/10/26 13:18:42;;;;;;;8.18;3.00;;;;;;;;;;5089235;28;20442;-80
2022/10/26 13:21:13;;;;;;;8.40;3.10;;;;;;;;;;5100117;28;20040;-79
2022/10/26 13:24:05;;;;;;;11.40;2.95;;;;;;;;;;5097869;28;20105;-79
2022/10/26 13:26:31;;;;;;;9.50;3.47;;;;;;;;;;5096288;28;20048;-78